Terminal Aerodrome Forecast
Issued by NWS

Home | Current Version | Previous Version | Text Only | Print | Product List | Glossary On
Versions: 1 2 3 4 5 6 7 8 9 10 11 12 13 14 15 16 17 18 19 20 21 22 23 24 25 26 27 28 29 30 31 32 33
000
FTAK31 PAFA 041120
TAFAQT
TAF
PAQT 041120Z 0412/0512 08023G30KT P6SM OVC005
     FM042100 08018G23KT P6SM OVC007
     FM050300 08015KT P6SM OVC004
     FM050800 08012KT P6SM OVC003
     FM051100 08013KT 1SM BR OVC003=

USA.gov is the U.S. government's official web portal to all federal, state and local government web resources and services.